Alencon, France

10:04 PM CEST on July 24, 2014 (GMT +0200)
Villaines la Juhel (I53700CO1) Elev 560 ft | 48.31 °N, 0.24 °W | Change Station

Current weather conditions updated 7 seconds ago

Rain
Rain
61.7 °F
Feels Like 61.7 °F
N
1.3
Wind Variable Wind from West
Gusts 4.6 mph

Tomorrow is forecast to be Much Cooler than today.

Today
High -- | Low -- °F
--% Chance of Precip.
Yesterday
High -- | Low -- °F
Precip. -- in
6:23 AM 9:47 PM
Waning Crescent, 4% visible
Pressure 29.98 in
Visibility 6.2 miles
Clouds
Dew Point 61 °F
Humidity 97%
Rainfall 0.76 in
Snow Depth Not available.
UV Not available.
Pollen Not available.
Air Quality Not available.
Flu Activity Not available.
METAR LFRK 242000Z AUTO 02006KT 340V040 9999 NSC 20/17 Q1015

More Conditions Fewer Conditions

Pressure 29.98 in
Visibility 6.2 miles
Clouds
Dew Point 61 °F
Humidity 97%
Rainfall 0.76 in
Snow Depth Not available.
UV Not available.
Pollen Not available.
Air Quality Not available.
Flu Activity Not available.
METAR LFRK 242000Z AUTO 02006KT 340V040 9999 NSC 20/17 Q1015

More Conditions Fewer Conditions

10-Day Weather Forecast

Almanac

Astronomy

Jul. 24, 2014 Rise Set
Actual Time 6:23 AM CEST 9:47 PM CEST
Civil Twilight 5:45 AM CEST 10:25 PM CEST
Nautical Twilight 4:54 AM CEST 11:16 PM CEST
Astronomical Twilight 3:47 AM CEST 12:22 AM CEST
Moon 4:21 AM CEST 7:49 PM CEST
Length of Visible Light 16h 40m
Length of Day
15h 23m
Tomorrow will be 2m 25s shorter.
Waning Crescent, 4% of the Moon is Illuminated
Today
Waning Crescent
Jul 26
New
Aug 3
First Quarter
Aug 10
Full
Aug 17
Last Quarter

Today's Extremes

Country Highs Country Lows

Community

WunderPhotos

Upload Photos

1,737,107 photos uploaded!

Nearby

Snow Depth

Not available.

Earthquake Activity

City Distance Mag. Time & Date
No recent earthquake activity has been reported nearby.
Minimum magnitude displayed is 2.5.

Coastal Water Temperatures

Place Temperature
No Stations Reporting

Nearby Weather Stations

Station Location Temp. Heat Index Dew Point Humidity Wind Precip. Elev Updated Type
Villaines la Juhel, Courcite 61.7 °F - 61 °F 97% West  at  1.3 mph 0.14 in / hr 560 ft 10:04 PM CEST Rapid Fire
lonne, Ige 80.6 °F 81 °F 59 °F 47% North  at  0.0 mph 0.00 in / hr 492 ft 7:40 PM CEST Rapid Fire
La Bretelliere, Appenai-sous-Belleme 75.7 °F 78 °F 61 °F 60% West  at  0.0 mph 0.00 in / hr 551 ft 10:00 PM CEST Normal

Show More Stations Show Fewer Stations